Flight Track Log - Related Links

Times and Time Zones

All times are in EDT time to prevent confusion due to time zone crossing. See the AAY863 flight status page for this flight to view local times or setup timezone preferences in your user account.

Time Position Orientation Groundspeed Altitude Reporting Facility
EDT Latitude Longitude Course Direction KTS MPH feet Rate Location/Type
Sun 05:42:43 PM 41.8164 -91.7639 137° Southeast 245 282 4,000  Level Chicago Center
Sun 05:43:45 PM 41.7414 -91.7233 158° South 276 318 6,300 2,661 Climbing Chicago Center
Sun 05:44:47 PM 41.6422 -91.6739 160° South 314 361 9,500 2,400 Climbing Chicago Center
Sun 05:45:50 PM 41.5522 -91.6292 160° South 344 396 11,300 1,548 Climbing Chicago Center
Sun 05:46:51 PM 41.4650 -91.5514 146° Southeast 389 448 12,700 1,415 Climbing Chicago Center
Sun 05:47:00 PM 41.2460 -91.2906 137° Southeast  Level FlightAware Approximate
Sun 05:47:53 PM 41.3769 -91.4439 137° Southeast 429 494 14,200  Level Chicago Center
Sun 05:48:00 PM 41.1568 -91.1792 137° Southeast  Level FlightAware Approximate
Sun 05:48:56 PM 41.2628 -91.3094 138° Southeast 458 527 16,500  Level Chicago Center
Sun 05:49:58 PM 41.1742 -91.2033 138° Southeast 466 536 18,300 1,790 Climbing Chicago Center
Sun 05:51:00 PM 41.0722 -91.0858 139° Southeast 483 556 20,200 1,742 Climbing Chicago Center
Sun 05:52:02 PM 40.9478 -90.9414 139° Southeast 495 570 21,900 1,500 Climbing Chicago Center
Sun 05:53:04 PM 40.8419 -90.8167 138° Southeast 505 581 23,300 1,306 Climbing Chicago Center
Sun 05:54:06 PM 40.7333 -90.6911 139° Southeast 516 594 24,600 1,258 Climbing Chicago Center
Sun 05:55:08 PM 40.6214 -90.5625 139° Southeast 530 610 25,900 1,355 Climbing Chicago Center
Sun 05:56:10 PM 40.5097 -90.4339 139° Southeast 534 615 27,400 1,452 Climbing Chicago Center
Sun 05:57:12 PM 40.3753 -90.2806 139° Southeast 537 618 28,900 1,248 Climbing Chicago Center
Sun 05:58:15 PM 40.2625 -90.1533 139° Southeast 538 619 30,000 1,056 Climbing Chicago Center
Sun 05:59:17 PM 40.1503 -90.0256 139° Southeast 539 620 31,100 992 Climbing Chicago Center
Sun 06:00:28 PM 40.0144 -89.8739 139° Southeast 536 617 32,200 818 Climbing Kansas City Center
Sun 06:01:29 PM 39.9022 -89.7492 140° Southeast 536 617 32,900 390 Climbing Kansas City Center
Sun 06:02:31 PM 39.7881 -89.6236 140° Southeast 536 617 33,000 48 Climbing Kansas City Center
Sun 06:03:35 PM 39.6681 -89.4989 141° Southeast 543 625 33,000  Level Kansas City Center
Sun 06:04:35 PM 39.5497 -89.3769 142° Southeast 543 625 33,000  Level Kansas City Center
Sun 06:05:39 PM 39.4061 -89.2308 142° Southeast 543 625 33,000  Level Kansas City Center
Sun 06:06:40 PM 39.2883 -89.1103 142° Southeast 543 625 33,000  Level Kansas City Center
Sun 06:07:41 PM 39.1703 -88.9897 142° Southeast 543 625 33,000  Level Kansas City Center
Sun 06:08:45 PM 39.0567 -88.8731 141° Southeast 530 610 33,000  Level Kansas City Center
Sun 06:09:45 PM 38.9389 -88.7550 142° Southeast 529 609 33,000  Level Kansas City Center
Sun 06:10:49 PM 38.8175 -88.6331 142° Southeast 533 613 33,000  Level Kansas City Center
Sun 06:11:50 PM 38.6981 -88.5156 142° Southeast 535 616 33,000  Level Kansas City Center
Sun 06:13:05 PM 38.5319 -88.3519 142° Southeast 537 618 33,000  Level Indianapolis Center
Sun 06:13:55 PM 38.4369 -88.2578 142° Southeast 537 618 33,000  Level Kansas City Center
Sun 06:15:09 PM 38.2950 -88.1194 143° Southeast 537 618 33,000  Level Indianapolis Center
Sun 06:16:11 PM 38.1769 -88.0042 142° Southeast 537 618 33,000  Level Indianapolis Center
Sun 06:17:13 PM 38.0603 -87.8914 143° Southeast 535 616 33,000  Level Indianapolis Center
Sun 06:18:15 PM 37.9194 -87.7567 143° Southeast 533 613 33,000  Level Indianapolis Center
Sun 06:19:17 PM 37.7897 -87.6778 154° Southeast 526 605 33,000  Level Indianapolis Center
Sun 06:20:19 PM 37.6572 -87.5956 154° Southeast 514 592 33,000  Level Indianapolis Center
Sun 06:21:21 PM 37.5278 -87.5172 154° Southeast 512 589 33,000  Level Indianapolis Center
Sun 06:22:23 PM 37.3983 -87.4372 154° Southeast 512 589 33,000  Level Indianapolis Center
Sun 06:23:06 PM 37.3122 -87.3853 154° Southeast 512 589 33,000  Level Memphis Center
Sun 06:24:07 PM 37.1842 -87.3072 154° Southeast 512 589 33,000  Level Memphis Center
Sun 06:25:09 PM 37.0558 -87.2303 154° Southeast 508 585 33,000  Level Memphis Center
Sun 06:26:11 PM 36.9069 -87.1411 154° Southeast 508 585 33,000  Level Memphis Center
Sun 06:27:13 PM 36.7794 -87.0639 154° Southeast 504 580 33,000  Level Memphis Center
Sun 06:28:15 PM 36.6517 -86.9881 155° Southeast 504 580 33,000  Level Memphis Center
Sun 06:29:17 PM 36.5239 -86.9114 154° Southeast 504 580 33,000  Level Memphis Center
Sun 06:30:19 PM 36.4019 -86.8367 154° Southeast 502 578 33,000  Level Memphis Center
Sun 06:31:21 PM 36.2556 -86.7533 155° Southeast 510 587 33,000  Level Memphis Center
Sun 06:32:23 PM 36.1286 -86.6806 155° Southeast 509 586 33,000  Level Memphis Center
Sun 06:33:25 PM 35.9997 -86.6172 158° South 497 572 33,000  Level Memphis Center
Sun 06:34:27 PM 35.8708 -86.5533 158° South 497 572 33,000  Level Memphis Center
Sun 06:35:29 PM 35.7414 -86.4897 158° South 496 571 33,000  Level Memphis Center
Sun 06:36:31 PM 35.6122 -86.4264 158° South 496 571 33,000  Level Memphis Center
Sun 06:37:33 PM 35.4836 -86.3628 158° South 496 571 33,000  Level Memphis Center
Sun 06:38:35 PM 35.3339 -86.2892 158° South 496 571 33,000  Level Memphis Center
Sun 06:39:37 PM 35.2044 -86.2256 158° South 495 570 33,000  Level Memphis Center
Sun 06:40:39 PM 35.0744 -86.1633 159° South 495 570 33,000  Level Memphis Center
Sun 06:41:41 PM 34.9478 -86.1014 158° South 495 570 33,000  Level Memphis Center
Sun 06:42:43 PM 34.8203 -86.0408 159° South 495 570 33,000  Level Memphis Center
Sun 06:43:45 PM 34.6903 -85.9769 158° South 495 570 33,000  Level Memphis Center
Sun 06:44:47 PM 34.5619 -85.9156 158° South 495 570 33,000  Level Memphis Center
Sun 06:45:49 PM 34.4069 -85.8417 159° South 495 570 33,000  Level Memphis Center
Sun 06:46:51 PM 34.2800 -85.7819 159° South 493 567 33,000  Level Memphis Center
Sun 06:48:12 PM 34.1086 -85.7022 159° South 485 558 33,000  Level Atlanta Center
Sun 06:49:12 PM 33.9822 -85.6447 159° South 485 558 33,000  Level Atlanta Center
Sun 06:50:12 PM 33.8533 -85.5847 159° South 485 558 33,000  Level Atlanta Center
Sun 06:51:12 PM 33.7289 -85.5250 158° South 485 558 33,000  Level Atlanta Center
Sun 06:52:12 PM 33.6022 -85.4678 159° South 485 558 33,000  Level Atlanta Center
Sun 06:53:12 PM 33.4692 -85.4308 167° South 480 552 33,000  Level Atlanta Center
Sun 06:54:12 PM 33.3358 -85.3989 169° South 486 559 33,000  Level Atlanta Center
Sun 06:55:12 PM 33.2069 -85.3672 168° South 486 559 33,000  Level Atlanta Center
Sun 06:56:12 PM 33.0756 -85.3328 168° South 486 559 33,000  Level Atlanta Center
Sun 06:57:12 PM 32.9511 -85.2792 160° South 486 559 33,000  Level Atlanta Center
Sun 06:58:12 PM 32.8242 -85.2278 161° South 486 559 33,000  Level Atlanta Center
Sun 06:59:12 PM 32.6953 -85.1792 162° South 486 559 33,000  Level Atlanta Center
Sun 07:00:12 PM 32.5683 -85.1283 161° South 476 548 33,000  Level Atlanta Center
Sun 07:01:12 PM 32.4478 -85.0825 162° South 476 548 33,000  Level Atlanta Center
Sun 07:02:12 PM 32.3311 -85.0369 162° South 476 548 33,000  Level Atlanta Center
Sun 07:03:12 PM 32.2022 -84.9961 165° South 482 555 33,000  Level Atlanta Center
Sun 07:06:51 PM 31.7447 -84.8178 162° South 479 551 33,000  Level Jacksonville Center
Sun 07:07:52 PM 31.6181 -84.7711 163° South 479 551 33,000  Level Jacksonville Center
Sun 07:08:51 PM 31.4914 -84.7247 163° South 484 557 33,000  Level Jacksonville Center
Sun 07:09:52 PM 31.3647 -84.6761 162° South 478 550 33,000  Level Jacksonville Center
Sun 07:10:52 PM 31.2381 -84.6300 163° South 478 550 33,000  Level Jacksonville Center
Sun 07:11:52 PM 31.1133 -84.5814 162° South 484 557 33,000  Level Jacksonville Center
Sun 07:12:51 PM 30.9908 -84.5381 163° South 477 549 33,000  Level Jacksonville Center
Sun 07:13:51 PM 30.8683 -84.4900 161° South 477 549 33,000  Level Jacksonville Center
Sun 07:14:51 PM 30.7436 -84.4444 163° South 477 549 33,000  Level Jacksonville Center
Sun 07:15:51 PM 30.6189 -84.3989 163° South 477 549 33,000  Level Jacksonville Center
Sun 07:16:51 PM 30.5025 -84.3392 156° South 477 549 33,000  Level Jacksonville Center
Sun 07:17:52 PM 30.3886 -84.2653 151° Southeast 467 537 33,000  Level Jacksonville Center
Sun 07:18:51 PM 30.2767 -84.1914 150° Southeast 462 532 33,000  Level Jacksonville Center
Sun 07:19:51 PM 30.1686 -84.1228 151° Southeast 456 525 33,000  Level Jacksonville Center
Sun 07:20:52 PM 30.0586 -84.0517 151° Southeast 456 525 33,000 -50 Level Jacksonville Center
Sun 07:21:51 PM 29.9486 -83.9786 150° Southeast 456 525 32,900  Descending Jacksonville Center
Sun 07:22:52 PM 29.8261 -83.9006 151° Southeast 456 525 33,000 50 Climbing Jacksonville Center
Sun 07:23:51 PM 29.7161 -83.8300 151° Southeast 456 525 33,000  Level Jacksonville Center
Sun 07:24:52 PM 29.6039 -83.7572 151° Southeast 456 525 33,000 -500 Level Jacksonville Center
Sun 07:25:51 PM 29.4894 -83.6847 151° Southeast 456 525 32,000 -1,563 Descending Jacksonville Center
Sun 07:26:51 PM 29.3772 -83.6122 151° Southeast 456 525 29,900 -2,150 Descending Jacksonville Center
Sun 07:27:51 PM 29.2628 -83.5400 151° Southeast 456 525 27,700 -2,182 Descending Jacksonville Center
Sun 07:28:52 PM 29.1483 -83.4633 150° Southeast 461 531 25,500 -2,200 Descending Jacksonville Center
Sun 07:29:51 PM 29.0358 -83.3936 152° Southeast 461 531 23,300 -2,218 Descending Jacksonville Center
Sun 07:30:51 PM 28.9297 -83.3244 150° Southeast 451 519 21,100 -2,182 Descending Jacksonville Center
Sun 07:31:52 PM 28.8278 -83.2600 151° Southeast 439 505 18,900 -2,145 Descending Jacksonville Center
Sun 07:34:04 PM 28.6086 -83.1189 151° Southeast 412 474 14,200 -1,856 Descending Miami Center
Sun 07:35:06 PM 28.5058 -83.0567 152° Southeast 399 459 12,900 -791 Descending Miami Center
Sun 07:36:13 PM 28.4000 -83.0000 155° Southeast 385 443 12,500 -634 Descending Tampa TRACON
Sun 07:37:09 PM 28.3203 -82.9433 148° Southeast 374 430 11,600 -915 Descending Miami Center
Sun 07:38:11 PM 28.2419 -82.8947 151° Southeast 327 376 10,700 -1,317 Descending Miami Center
Sun 07:39:12 PM 28.1675 -82.8583 157° South 297 342 8,900 -2,066 Descending Miami Center
Sun 07:40:13 PM 28.0833 -82.8333 165° South 286 329 6,500 -2,281 Descending Tampa TRACON
Sun 07:41:13 PM 28.0000 -82.8000 161° South 279 321 4,300 -1,750 Descending Tampa TRACON
Sun 07:42:13 PM 27.9333 -82.7833 168° South 255 293 3,000 -1,200 Descending Tampa TRACON
Sun 07:43:13 PM 27.8833 -82.7500 149° Southeast 205 236 1,900 -800 Descending Tampa TRACON
Sun 07:44:13 PM 27.8500 -82.7167 139° Southeast 172 198 1,400 -550 Descending Tampa TRACON
Sun 07:45:13 PM 27.8667 -82.6833 61° Northeast 156 180 800 -600 Descending Tampa TRACON

Login

Don't have an account? Register now (free) for customized features, flight alerts, and more!